sensor_id;sensor_type;location;lat;lon;timestamp;pressure;altitude;pressure_sealevel;temperature;humidity
71915;BME280;60387;49.994;14.660;2023-07-20T00:00:39;97164.22;;;22.88;38.03
71915;BME280;60387;49.994;14.660;2023-07-20T00:03:14;97174.06;;;22.82;37.52
71915;BME280;60387;49.994;14.660;2023-07-20T00:05:47;97151.97;;;22.68;37.85
71915;BME280;60387;49.994;14.660;2023-07-20T00:08:20;97163.81;;;22.72;39.60
71915;BME280;60387;49.994;14.660;2023-07-20T00:10:54;97162.63;;;22.66;39.41
71915;BME280;60387;49.994;14.660;2023-07-20T00:13:27;97166.16;;;22.60;38.56
71915;BME280;60387;49.994;14.660;2023-07-20T00:16:01;97172.44;;;22.53;37.88
71915;BME280;60387;49.994;14.660;2023-07-20T00:18:34;97169.28;;;22.51;37.18
71915;BME280;60387;49.994;14.660;2023-07-20T00:21:07;97176.78;;;22.47;37.32
71915;BME280;60387;49.994;14.660;2023-07-20T00:23:40;97179.53;;;22.47;37.50
71915;BME280;60387;49.994;14.660;2023-07-20T00:26:14;97181.88;;;22.45;37.93
71915;BME280;60387;49.994;14.660;2023-07-20T00:28:49;97176.78;;;22.44;40.39
71915;BME280;60387;49.994;14.660;2023-07-20T00:31:23;97181.03;;;22.34;38.72
71915;BME280;60387;49.994;14.660;2023-07-20T00:33:56;97177.09;;;22.28;38.45
71915;BME280;60387;49.994;14.660;2023-07-20T00:36:29;97183.38;;;22.25;39.03
71915;BME280;60387;49.994;14.660;2023-07-20T00:39:03;97184.94;;;22.23;38.32
71915;BME280;60387;49.994;14.660;2023-07-20T00:41:36;97193.63;;;22.18;39.15
71915;BME280;60387;49.994;14.660;2023-07-20T00:44:09;97186.50;;;22.10;40.66
71915;BME280;60387;49.994;14.660;2023-07-20T00:46:43;97177.38;;;22.02;39.19
71915;BME280;60387;49.994;14.660;2023-07-20T00:49:16;97178.56;;;22.01;39.23
71915;BME280;60387;49.994;14.660;2023-07-20T00:51:50;97179.72;;;21.97;39.54
71915;BME280;60387;49.994;14.660;2023-07-20T00:54:23;97192.72;;;21.93;39.23
71915;BME280;60387;49.994;14.660;2023-07-20T00:56:57;97195.47;;;21.89;38.39
71915;BME280;60387;49.994;14.660;2023-07-20T00:59:31;97204.94;;;21.92;38.77
71915;BME280;60387;49.994;14.660;2023-07-20T01:02:05;97200.59;;;21.91;38.70
71915;BME280;60387;49.994;14.660;2023-07-20T01:04:38;97210.03;;;21.90;38.05
71915;BME280;60387;49.994;14.660;2023-07-20T01:07:24;97217.53;;;21.89;38.12
71915;BME280;60387;49.994;14.660;2023-07-20T01:10:02;97225.41;;;21.87;38.24
71915;BME280;60387;49.994;14.660;2023-07-20T01:12:41;97218.69;;;21.85;39.12
71915;BME280;60387;49.994;14.660;2023-07-20T01:15:15;97220.19;;;21.75;38.61
71915;BME280;60387;49.994;14.660;2023-07-20T01:17:48;97233.19;;;21.71;38.45
71915;BME280;60387;49.994;14.660;2023-07-20T01:20:22;97228.03;;;21.66;39.02
71915;BME280;60387;49.994;14.660;2023-07-20T01:31:41;97217.25;;;21.47;38.49
71915;BME280;60387;49.994;14.660;2023-07-20T01:34:17;97228.66;;;21.49;39.98
71915;BME280;60387;49.994;14.660;2023-07-20T01:36:52;97215.22;;;21.41;39.44
71915;BME280;60387;49.994;14.660;2023-07-20T01:39:27;97218.38;;;21.43;42.11
71915;BME280;60387;49.994;14.660;2023-07-20T01:42:01;97219.13;;;21.36;40.58
71915;BME280;60387;49.994;14.660;2023-07-20T01:44:34;97226.97;;;21.31;39.67
71915;BME280;60387;49.994;14.660;2023-07-20T01:47:07;97223.38;;;21.27;39.76
71915;BME280;60387;49.994;14.660;2023-07-20T01:49:40;97224.59;;;21.29;39.50
71915;BME280;60387;49.994;14.660;2023-07-20T01:52:14;97224.97;;;21.28;39.28
71915;BME280;60387;49.994;14.660;2023-07-20T01:54:47;97225.38;;;21.30;39.21
71915;BME280;60387;49.994;14.660;2023-07-20T01:57:20;97231.69;;;21.30;39.32
71915;BME280;60387;49.994;14.660;2023-07-20T01:59:54;97231.69;;;21.30;39.20
71915;BME280;60387;49.994;14.660;2023-07-20T02:02:27;97225.38;;;21.30;39.42
71915;BME280;60387;49.994;14.660;2023-07-20T02:05:00;97223.81;;;21.32;38.95
71915;BME280;60387;49.994;14.660;2023-07-20T02:07:34;97239.97;;;21.34;38.86
71915;BME280;60387;49.994;14.660;2023-07-20T02:10:07;97232.88;;;21.33;39.07
71915;BME280;60387;49.994;14.660;2023-07-20T02:12:40;97232.47;;;21.34;39.00
71915;BME280;60387;49.994;14.660;2023-07-20T02:15:14;97240.41;;;21.39;38.75
71915;BME280;60387;49.994;14.660;2023-07-20T02:17:48;97241.63;;;21.42;38.99
71915;BME280;60387;49.994;14.660;2023-07-20T02:20:21;97233.38;;;21.45;40.04
71915;BME280;60387;49.994;14.660;2023-07-20T02:22:54;97234.56;;;21.44;39.59
71915;BME280;60387;49.994;14.660;2023-07-20T02:25:27;97235.72;;;21.43;39.18
71915;BME280;60387;49.994;14.660;2023-07-20T02:28:01;97224.25;;;21.38;39.97
71915;BME280;60387;49.994;14.660;2023-07-20T02:30:37;97230.56;;;21.38;40.69
71915;BME280;60387;49.994;14.660;2023-07-20T02:33:11;97227.75;;;21.31;40.11
71915;BME280;60387;49.994;14.660;2023-07-20T02:35:44;97226.16;;;21.30;43.52
71915;BME280;60387;49.994;14.660;2023-07-20T02:38:17;97230.44;;;21.24;41.24
71915;BME280;60387;49.994;14.660;2023-07-20T02:40:51;97220.56;;;21.20;42.06
71915;BME280;60387;49.994;14.660;2023-07-20T02:43:24;97223.69;;;21.15;41.69
71915;BME280;60387;49.994;14.660;2023-07-20T02:45:57;97231.53;;;21.09;41.87
71915;BME280;60387;49.994;14.660;2023-07-20T02:48:31;97225.59;;;21.07;42.04
71915;BME280;60387;49.994;14.660;2023-07-20T02:51:04;97230.28;;;21.03;41.60
71915;BME280;60387;49.994;14.660;2023-07-20T02:53:37;97219.63;;;21.02;42.40
71915;BME280;60387;49.994;14.660;2023-07-20T02:56:10;97234.59;;;21.01;41.67
71915;BME280;60387;49.994;14.660;2023-07-20T02:58:44;97234.59;;;21.01;41.10
71915;BME280;60387;49.994;14.660;2023-07-20T03:01:17;97241.63;;;20.98;41.45
71915;BME280;60387;49.994;14.660;2023-07-20T03:03:50;97238.09;;;20.98;42.59
71915;BME280;60387;49.994;14.660;2023-07-20T03:06:23;97242.38;;;20.92;41.07
71915;BME280;60387;49.994;14.660;2023-07-20T03:08:57;97248.69;;;20.92;41.27
71915;BME280;60387;49.994;14.660;2023-07-20T03:11:32;97260.84;;;20.91;41.32
71915;BME280;60387;49.994;14.660;2023-07-20T03:14:05;97255.34;;;20.91;43.15
71915;BME280;60387;49.994;14.660;2023-07-20T03:16:38;97247.78;;;20.85;41.67
71915;BME280;60387;49.994;14.660;2023-07-20T03:19:12;97256.44;;;20.83;41.30
71915;BME280;60387;49.994;14.660;2023-07-20T03:21:45;97254.03;;;20.82;41.16
71915;BME280;60387;49.994;14.660;2023-07-20T03:24:18;97252.06;;;20.82;41.08
71915;BME280;60387;49.994;14.660;2023-07-20T03:26:52;97251.66;;;20.80;42.37
71915;BME280;60387;49.994;14.660;2023-07-20T03:29:25;97257.16;;;20.80;42.08
71915;BME280;60387;49.994;14.660;2023-07-20T03:31:58;97247.72;;;20.81;43.37
71915;BME280;60387;49.994;14.660;2023-07-20T03:34:31;97257.56;;;20.82;42.68
71915;BME280;60387;49.994;14.660;2023-07-20T03:37:05;97264.28;;;20.85;45.13
71915;BME280;60387;49.994;14.660;2023-07-20T03:39:38;97263.47;;;20.81;42.96
71915;BME280;60387;49.994;14.660;2023-07-20T03:42:11;97262.72;;;20.84;43.14
71915;BME280;60387;49.994;14.660;2023-07-20T03:44:45;97268.22;;;20.84;42.95
71915;BME280;60387;49.994;14.660;2023-07-20T03:47:18;97257.66;;;20.86;42.29
71915;BME280;60387;49.994;14.660;2023-07-20T03:49:51;97264.44;;;20.95;45.88
71915;BME280;60387;49.994;14.660;2023-07-20T03:52:25;97265.28;;;21.03;44.99
71915;BME280;60387;49.994;14.660;2023-07-20T03:54:58;97273.72;;;21.20;44.29
71915;BME280;60387;49.994;14.660;2023-07-20T03:57:31;97273.53;;;21.46;43.91
71915;BME280;60387;49.994;14.660;2023-07-20T04:00:05;97266.97;;;21.61;42.69
71915;BME280;60387;49.994;14.660;2023-07-20T04:02:38;97269.09;;;21.78;41.91
71915;BME280;60387;49.994;14.660;2023-07-20T04:05:12;97261.41;;;22.15;42.59
71915;BME280;60387;49.994;14.660;2023-07-20T04:07:45;97267.88;;;22.47;41.42
71915;BME280;60387;49.994;14.660;2023-07-20T04:10:18;97275.03;;;22.66;40.92
71915;BME280;60387;49.994;14.660;2023-07-20T04:12:52;97264.78;;;22.63;40.37
71915;BME280;60387;49.994;14.660;2023-07-20T04:15:25;97282.16;;;22.63;41.16
71915;BME280;60387;49.994;14.660;2023-07-20T04:17:59;97284.06;;;22.56;40.58
71915;BME280;60387;49.994;14.660;2023-07-20T04:20:32;97287.59;;;22.49;40.64
71915;BME280;60387;49.994;14.660;2023-07-20T04:23:05;97277.34;;;22.46;40.51
71915;BME280;60387;49.994;14.660;2023-07-20T04:25:39;97293.19;;;22.67;40.59
71915;BME280;60387;49.994;14.660;2023-07-20T04:28:13;97280.22;;;22.95;40.32
71915;BME280;60387;49.994;14.660;2023-07-20T04:30:48;97281.50;;;23.19;39.72
71915;BME280;60387;49.994;14.660;2023-07-20T04:33:22;97277.53;;;23.37;39.70
71915;BME280;60387;49.994;14.660;2023-07-20T04:35:55;97287.00;;;23.67;39.63
71915;BME280;60387;49.994;14.660;2023-07-20T04:38:29;97281.06;;;24.00;39.43
71915;BME280;60387;49.994;14.660;2023-07-20T04:41:02;97280.22;;;24.21;39.19
71915;BME280;60387;49.994;14.660;2023-07-20T04:43:35;97273.88;;;24.24;39.72
71915;BME280;60387;49.994;14.660;2023-07-20T04:46:12;97276.28;;;24.15;39.42
71915;BME280;60387;49.994;14.660;2023-07-20T04:48:45;97275.97;;;23.99;39.33
71915;BME280;60387;49.994;14.660;2023-07-20T04:51:18;97282.28;;;23.96;39.41
71915;BME280;60387;49.994;14.660;2023-07-20T04:53:51;97283.06;;;23.96;40.62
71915;BME280;60387;49.994;14.660;2023-07-20T04:56:25;97284.22;;;24.06;39.70
71915;BME280;60387;49.994;14.660;2023-07-20T04:58:58;97283.44;;;24.16;40.07
71915;BME280;60387;49.994;14.660;2023-07-20T05:01:31;97289.69;;;24.34;40.07
71915;BME280;60387;49.994;14.660;2023-07-20T05:04:05;97279.75;;;24.43;39.94
71915;BME280;60387;49.994;14.660;2023-07-20T05:06:38;97287.66;;;24.52;40.68
71915;BME280;60387;49.994;14.660;2023-07-20T05:09:11;97297.53;;;24.53;39.97
71915;BME280;60387;49.994;14.660;2023-07-20T05:11:45;97294.75;;;24.53;40.69
71915;BME280;60387;49.994;14.660;2023-07-20T05:14:18;97292.78;;;24.60;40.34
71915;BME280;60387;49.994;14.660;2023-07-20T05:16:51;97283.66;;;24.67;40.23
71915;BME280;60387;49.994;14.660;2023-07-20T05:19:25;97297.38;;;24.91;40.95
71915;BME280;60387;49.994;14.660;2023-07-20T05:21:58;97293.72;;;25.08;40.07
71915;BME280;60387;49.994;14.660;2023-07-20T05:24:31;97299.53;;;25.31;39.73
71915;BME280;60387;49.994;14.660;2023-07-20T05:27:05;97293.00;;;25.52;39.49
71915;BME280;60387;49.994;14.660;2023-07-20T05:29:45;97305.22;;;25.65;39.57
71915;BME280;60387;49.994;14.660;2023-07-20T05:32:19;97308.66;;;25.79;38.80
71915;BME280;60387;49.994;14.660;2023-07-20T05:34:53;97308.22;;;25.88;38.94
71915;BME280;60387;49.994;14.660;2023-07-20T05:37:26;97303.47;;;25.81;38.93
71915;BME280;60387;49.994;14.660;2023-07-20T05:40:00;97303.44;;;25.85;39.10
71915;BME280;60387;49.994;14.660;2023-07-20T05:42:33;97303.75;;;25.97;38.94
71915;BME280;60387;49.994;14.660;2023-07-20T05:45:06;97309.88;;;26.19;38.65
71915;BME280;60387;49.994;14.660;2023-07-20T05:47:43;97314.09;;;26.34;38.28
71915;BME280;60387;49.994;14.660;2023-07-20T05:50:16;97316.28;;;26.53;37.94
71915;BME280;60387;49.994;14.660;2023-07-20T05:52:52;97313.25;;;26.74;37.86
71915;BME280;60387;49.994;14.660;2023-07-20T05:55:26;97307.75;;;26.97;37.83
71915;BME280;60387;49.994;14.660;2023-07-20T05:57:59;97300.69;;;27.22;37.29
71915;BME280;60387;49.994;14.660;2023-07-20T06:00:32;97307.59;;;27.63;37.22
71915;BME280;60387;49.994;14.660;2023-07-20T06:03:05;97305.56;;;27.90;36.63
71915;BME280;60387;49.994;14.660;2023-07-20T06:05:39;97311.63;;;28.08;36.35
71915;BME280;60387;49.994;14.660;2023-07-20T06:08:12;97315.94;;;28.32;36.17
71915;BME280;60387;49.994;14.660;2023-07-20T06:10:49;97320.94;;;28.64;35.42
71915;BME280;60387;49.994;14.660;2023-07-20T06:13:23;97326.00;;;28.88;35.63
71915;BME280;60387;49.994;14.660;2023-07-20T06:15:56;97325.41;;;29.16;35.27
71915;BME280;60387;49.994;14.660;2023-07-20T06:18:29;97329.84;;;29.49;35.07
71915;BME280;60387;49.994;14.660;2023-07-20T06:21:03;97332.78;;;29.78;35.07
71915;BME280;60387;49.994;14.660;2023-07-20T06:23:36;97334.63;;;29.84;33.08
71915;BME280;60387;49.994;14.660;2023-07-20T06:26:09;97334.28;;;29.82;32.53
71915;BME280;60387;49.994;14.660;2023-07-20T06:28:43;97333.59;;;29.78;33.13
71915;BME280;60387;49.994;14.660;2023-07-20T06:31:16;97327.28;;;29.74;33.14
71915;BME280;60387;49.994;14.660;2023-07-20T06:33:49;97338.03;;;29.76;32.94
71915;BME280;60387;49.994;14.660;2023-07-20T06:36:23;97330.59;;;29.85;33.19
71915;BME280;60387;49.994;14.660;2023-07-20T06:38:56;97335.03;;;29.99;33.35
71915;BME280;60387;49.994;14.660;2023-07-20T06:41:29;97335.06;;;30.15;33.08
71915;BME280;60387;49.994;14.660;2023-07-20T06:44:03;97331.38;;;30.34;32.66
71915;BME280;60387;49.994;14.660;2023-07-20T06:46:36;97333.28;;;30.37;32.45
71915;BME280;60387;49.994;14.660;2023-07-20T06:49:09;97332.16;;;30.34;32.51
71915;BME280;60387;49.994;14.660;2023-07-20T06:51:43;97338.00;;;30.40;32.75
71915;BME280;60387;49.994;14.660;2023-07-20T06:54:16;97329.91;;;30.58;32.70
71915;BME280;60387;49.994;14.660;2023-07-20T06:56:50;97333.28;;;30.81;32.14
71915;BME280;60387;49.994;14.660;2023-07-20T06:59:23;97337.09;;;30.87;31.86
71915;BME280;60387;49.994;14.660;2023-07-20T07:01:56;97337.59;;;30.98;31.99
71915;BME280;60387;49.994;14.660;2023-07-20T07:04:29;97327.28;;;31.08;32.04
71915;BME280;60387;49.994;14.660;2023-07-20T07:07:03;97331.66;;;31.08;32.11
71915;BME280;60387;49.994;14.660;2023-07-20T07:09:36;97327.75;;;31.06;31.43
71915;BME280;60387;49.994;14.660;2023-07-20T07:12:10;97338.88;;;31.22;31.32
71915;BME280;60387;49.994;14.660;2023-07-20T07:14:43;97335.88;;;31.54;31.42
71915;BME280;60387;49.994;14.660;2023-07-20T07:17:16;97338.72;;;31.79;31.03
71915;BME280;60387;49.994;14.660;2023-07-20T07:19:52;97337.13;;;31.90;31.08
71915;BME280;60387;49.994;14.660;2023-07-20T07:22:25;97336.00;;;31.88;30.18
71915;BME280;60387;49.994;14.660;2023-07-20T07:24:59;97339.72;;;31.85;30.34
71915;BME280;60387;49.994;14.660;2023-07-20T07:27:32;97338.81;;;31.88;30.17
71915;BME280;60387;49.994;14.660;2023-07-20T07:30:06;97334.53;;;31.96;29.33
71915;BME280;60387;49.994;14.660;2023-07-20T07:32:39;97333.47;;;32.15;30.65
71915;BME280;60387;49.994;14.660;2023-07-20T07:35:13;97339.50;;;32.51;29.74
71915;BME280;60387;49.994;14.660;2023-07-20T07:37:46;97340.13;;;32.89;28.64
71915;BME280;60387;49.994;14.660;2023-07-20T07:40:19;97339.47;;;33.06;27.47
71915;BME280;60387;49.994;14.660;2023-07-20T07:42:53;97332.94;;;33.09;28.38
71915;BME280;60387;49.994;14.660;2023-07-20T07:45:26;97336.75;;;32.94;26.99
71915;BME280;60387;49.994;14.660;2023-07-20T07:47:59;97333.44;;;32.74;28.04
71915;BME280;60387;49.994;14.660;2023-07-20T07:50:33;97337.97;;;32.59;27.65
71915;BME280;60387;49.994;14.660;2023-07-20T07:53:07;97343.84;;;32.52;27.26
71915;BME280;60387;49.994;14.660;2023-07-20T07:55:41;97339.38;;;32.42;28.05
71915;BME280;60387;49.994;14.660;2023-07-20T07:58:14;97336.16;;;32.31;28.71
71915;BME280;60387;49.994;14.660;2023-07-20T08:00:47;97345.81;;;32.30;28.67
71915;BME280;60387;49.994;14.660;2023-07-20T08:03:21;97349.03;;;32.41;27.71
71915;BME280;60387;49.994;14.660;2023-07-20T08:05:55;97345.91;;;32.39;27.39
71915;BME280;60387;49.994;14.660;2023-07-20T08:08:28;97346.06;;;32.23;26.86
71915;BME280;60387;49.994;14.660;2023-07-20T08:11:01;97339.59;;;32.01;27.93
71915;BME280;60387;49.994;14.660;2023-07-20T08:13:36;97348.69;;;31.80;27.63
71915;BME280;60387;49.994;14.660;2023-07-20T08:16:09;97351.66;;;31.60;28.17
71915;BME280;60387;49.994;14.660;2023-07-20T08:18:43;97344.38;;;31.50;28.38
71915;BME280;60387;49.994;14.660;2023-07-20T08:21:17;97356.16;;;31.45;28.59
71915;BME280;60387;49.994;14.660;2023-07-20T08:23:50;97371.72;;;31.34;28.56
71915;BME280;60387;49.994;14.660;2023-07-20T08:26:23;97356.47;;;31.23;28.72
71915;BME280;60387;49.994;14.660;2023-07-20T08:28:57;97356.75;;;31.12;28.79
71915;BME280;60387;49.994;14.660;2023-07-20T08:31:30;97358.19;;;31.04;28.82
71915;BME280;60387;49.994;14.660;2023-07-20T08:34:03;97357.59;;;30.97;28.95
71915;BME280;60387;49.994;14.660;2023-07-20T08:36:37;97361.63;;;30.96;28.88
71915;BME280;60387;49.994;14.660;2023-07-20T08:39:10;97353.25;;;30.96;29.34
71915;BME280;60387;49.994;14.660;2023-07-20T08:41:43;97360.97;;;31.04;28.98
71915;BME280;60387;49.994;14.660;2023-07-20T08:44:17;97370.94;;;31.05;28.88
71915;BME280;60387;49.994;14.660;2023-07-20T08:46:51;97367.69;;;31.07;28.63
71915;BME280;60387;49.994;14.660;2023-07-20T08:49:25;97369.03;;;31.02;29.02
71915;BME280;60387;49.994;14.660;2023-07-20T08:51:59;97377.22;;;31.09;28.82
71915;BME280;60387;49.994;14.660;2023-07-20T08:54:34;97371.53;;;31.13;28.97
71915;BME280;60387;49.994;14.660;2023-07-20T08:57:08;97370.03;;;31.24;28.69
71915;BME280;60387;49.994;14.660;2023-07-20T08:59:41;97367.00;;;31.31;28.33
71915;BME280;60387;49.994;14.660;2023-07-20T09:02:17;97367.34;;;31.33;28.90
71915;BME280;60387;49.994;14.660;2023-07-20T09:04:51;97358.06;;;31.36;28.45
71915;BME280;60387;49.994;14.660;2023-07-20T09:07:25;97365.78;;;31.32;28.57
71915;BME280;60387;49.994;14.660;2023-07-20T09:09:58;97358.94;;;31.33;28.32
71915;BME280;60387;49.994;14.660;2023-07-20T09:12:35;97357.25;;;31.48;28.57
71915;BME280;60387;49.994;14.660;2023-07-20T09:15:09;97361.13;;;31.79;28.50
71915;BME280;60387;49.994;14.660;2023-07-20T09:17:47;97365.91;;;32.03;27.60
71915;BME280;60387;49.994;14.660;2023-07-20T09:20:21;97360.28;;;32.28;27.83
71915;BME280;60387;49.994;14.660;2023-07-20T09:22:54;97355.47;;;32.63;28.04
71915;BME280;60387;49.994;14.660;2023-07-20T09:25:29;97338.88;;;32.90;27.26
71915;BME280;60387;49.994;14.660;2023-07-20T09:28:02;97347.91;;;33.28;27.33
71915;BME280;60387;49.994;14.660;2023-07-20T09:30:36;97356.50;;;33.64;25.21
71915;BME280;60387;49.994;14.660;2023-07-20T09:33:18;97358.03;;;33.86;25.34
71915;BME280;60387;49.994;14.660;2023-07-20T09:35:52;97350.06;;;33.85;25.26
71915;BME280;60387;49.994;14.660;2023-07-20T09:38:26;97356.03;;;33.65;24.07
71915;BME280;60387;49.994;14.660;2023-07-20T09:40:59;97353.09;;;33.38;24.65
71915;BME280;60387;49.994;14.660;2023-07-20T09:43:34;97363.22;;;33.36;25.76
71915;BME280;60387;49.994;14.660;2023-07-20T09:46:07;97353.03;;;33.60;25.83
71915;BME280;60387;49.994;14.660;2023-07-20T09:48:51;97350.56;;;33.92;23.71
71915;BME280;60387;49.994;14.660;2023-07-20T09:51:25;97354.03;;;34.14;23.70
71915;BME280;60387;49.994;14.660;2023-07-20T09:53:58;97354.75;;;34.27;23.25
71915;BME280;60387;49.994;14.660;2023-07-20T09:56:33;97360.84;;;34.44;23.90
71915;BME280;60387;49.994;14.660;2023-07-20T09:59:06;97359.47;;;34.66;23.81
71915;BME280;60387;49.994;14.660;2023-07-20T10:01:41;97360.56;;;34.96;23.53
71915;BME280;60387;49.994;14.660;2023-07-20T10:04:16;97364.34;;;35.02;22.92
71915;BME280;60387;49.994;14.660;2023-07-20T10:06:52;97359.00;;;34.95;23.15
71915;BME280;60387;49.994;14.660;2023-07-20T10:09:28;97353.38;;;35.04;23.37
71915;BME280;60387;49.994;14.660;2023-07-20T10:12:03;97358.97;;;35.30;22.86
71915;BME280;60387;49.994;14.660;2023-07-20T10:14:41;97361.91;;;35.54;22.39
71915;BME280;60387;49.994;14.660;2023-07-20T10:17:17;97349.81;;;35.71;22.72
71915;BME280;60387;49.994;14.660;2023-07-20T10:19:52;97351.91;;;35.94;22.65
71915;BME280;60387;49.994;14.660;2023-07-20T10:22:30;97334.81;;;35.98;21.85
71915;BME280;60387;49.994;14.660;2023-07-20T10:25:04;97359.84;;;36.14;20.95
71915;BME280;60387;49.994;14.660;2023-07-20T10:27:38;97335.50;;;36.16;21.77
71915;BME280;60387;49.994;14.660;2023-07-20T10:30:12;97344.28;;;36.18;21.70
71915;BME280;60387;49.994;14.660;2023-07-20T10:32:47;97338.03;;;36.14;20.92
71915;BME280;60387;49.994;14.660;2023-07-20T10:35:20;97331.75;;;36.10;19.98
71915;BME280;60387;49.994;14.660;2023-07-20T10:37:54;97340.44;;;35.98;20.17
71915;BME280;60387;49.994;14.660;2023-07-20T10:40:34;97356.50;;;35.83;21.05
71915;BME280;60387;49.994;14.660;2023-07-20T10:43:10;97353.28;;;35.66;21.20
71915;BME280;60387;49.994;14.660;2023-07-20T10:45:52;97341.84;;;35.52;21.37
71915;BME280;60387;49.994;14.660;2023-07-20T10:48:25;97348.19;;;35.38;20.66
71915;BME280;60387;49.994;14.660;2023-07-20T10:51:20;97346.81;;;35.07;21.27
71915;BME280;60387;49.994;14.660;2023-07-20T10:53:57;97349.78;;;34.76;20.64
71915;BME280;60387;49.994;14.660;2023-07-20T10:56:31;97337.56;;;34.34;21.02
71915;BME280;60387;49.994;14.660;2023-07-20T10:59:17;97349.94;;;33.97;21.54
71915;BME280;60387;49.994;14.660;2023-07-20T11:01:57;97346.44;;;33.75;22.42
71915;BME280;60387;49.994;14.660;2023-07-20T11:04:44;97360.84;;;33.56;22.01
71915;BME280;60387;49.994;14.660;2023-07-20T11:07:37;97346.31;;;33.27;22.87
71915;BME280;60387;49.994;14.660;2023-07-20T11:10:14;97339.06;;;33.17;23.04
71915;BME280;60387;49.994;14.660;2023-07-20T11:13:16;97335.19;;;33.45;22.86
71915;BME280;60387;49.994;14.660;2023-07-20T11:18:29;97342.31;;;33.98;22.92
71915;BME280;60387;49.994;14.660;2023-07-20T11:21:02;97339.97;;;34.05;22.82
71915;BME280;60387;49.994;14.660;2023-07-20T11:23:37;97344.16;;;34.01;22.20
71915;BME280;60387;49.994;14.660;2023-07-20T11:26:11;97346.00;;;33.86;22.54
71915;BME280;60387;49.994;14.660;2023-07-20T11:28:48;97348.41;;;33.66;23.04
71915;BME280;60387;49.994;14.660;2023-07-20T11:31:22;97335.66;;;33.43;22.30
71915;BME280;60387;49.994;14.660;2023-07-20T11:33:55;97342.59;;;33.30;23.21
71915;BME280;60387;49.994;14.660;2023-07-20T11:36:28;97336.00;;;33.24;23.38
71915;BME280;60387;49.994;14.660;2023-07-20T11:39:02;97336.22;;;33.38;23.42
71915;BME280;60387;49.994;14.660;2023-07-20T11:41:35;97334.50;;;33.71;23.11
71915;BME280;60387;49.994;14.660;2023-07-20T11:44:09;97329.19;;;34.13;23.24
71915;BME280;60387;49.994;14.660;2023-07-20T11:46:44;97318.50;;;34.38;22.18
71915;BME280;60387;49.994;14.660;2023-07-20T11:49:17;97322.56;;;34.55;22.00
71915;BME280;60387;49.994;14.660;2023-07-20T11:51:50;97319.00;;;34.73;21.50
71915;BME280;60387;49.994;14.660;2023-07-20T11:54:24;97310.06;;;34.92;20.86
71915;BME280;60387;49.994;14.660;2023-07-20T11:57:00;97319.59;;;35.04;20.34
71915;BME280;60387;49.994;14.660;2023-07-20T11:59:34;97314.75;;;34.95;20.42
71915;BME280;60387;49.994;14.660;2023-07-20T12:02:07;97307.41;;;34.80;20.32
71915;BME280;60387;49.994;14.660;2023-07-20T12:04:40;97313.66;;;34.66;21.35
71915;BME280;60387;49.994;14.660;2023-07-20T12:07:14;97312.41;;;34.67;21.65
71915;BME280;60387;49.994;14.660;2023-07-20T12:10:06;97310.22;;;34.89;20.96
71915;BME280;60387;49.994;14.660;2023-07-20T12:12:41;97313.66;;;35.02;20.74
71915;BME280;60387;49.994;14.660;2023-07-20T12:15:25;97307.97;;;35.28;21.27
71915;BME280;60387;49.994;14.660;2023-07-20T12:18:00;97313.81;;;35.66;20.23
71915;BME280;60387;49.994;14.660;2023-07-20T12:20:35;97309.03;;;35.81;20.75
71915;BME280;60387;49.994;14.660;2023-07-20T12:23:12;97316.19;;;35.91;20.00
71915;BME280;60387;49.994;14.660;2023-07-20T12:25:46;97307.22;;;35.69;20.08
71915;BME280;60387;49.994;14.660;2023-07-20T12:28:19;97291.66;;;35.41;20.38
71915;BME280;60387;49.994;14.660;2023-07-20T12:30:53;97308.00;;;35.20;20.60
71915;BME280;60387;49.994;14.660;2023-07-20T12:33:26;97299.25;;;35.00;20.61
71915;BME280;60387;49.994;14.660;2023-07-20T12:36:00;97291.75;;;34.88;20.85
71915;BME280;60387;49.994;14.660;2023-07-20T12:38:34;97293.47;;;34.67;20.82
71915;BME280;60387;49.994;14.660;2023-07-20T12:41:09;97290.81;;;34.55;20.81
71915;BME280;60387;49.994;14.660;2023-07-20T12:43:43;97289.91;;;34.40;21.14
71915;BME280;60387;49.994;14.660;2023-07-20T12:46:16;97290.22;;;34.42;21.30
71915;BME280;60387;49.994;14.660;2023-07-20T12:48:50;97290.66;;;34.67;21.17
71915;BME280;60387;49.994;14.660;2023-07-20T12:51:23;97282.53;;;34.96;20.89
71915;BME280;60387;49.994;14.660;2023-07-20T12:53:56;97284.00;;;35.33;20.54
71915;BME280;60387;49.994;14.660;2023-07-20T12:56:29;97283.13;;;35.68;20.17
71915;BME280;60387;49.994;14.660;2023-07-20T12:59:03;97273.63;;;35.80;19.48
71915;BME280;60387;49.994;14.660;2023-07-20T13:01:36;97272.53;;;36.10;18.78
71915;BME280;60387;49.994;14.660;2023-07-20T13:04:09;97280.72;;;36.32;19.96
71915;BME280;60387;49.994;14.660;2023-07-20T13:06:42;97269.28;;;36.50;19.31
71915;BME280;60387;49.994;14.660;2023-07-20T13:09:16;97287.03;;;36.41;19.06
71915;BME280;60387;49.994;14.660;2023-07-20T13:11:49;97266.88;;;36.10;19.12
71915;BME280;60387;49.994;14.660;2023-07-20T13:14:22;97279.72;;;35.88;18.69
71915;BME280;60387;49.994;14.660;2023-07-20T13:16:56;97281.38;;;35.71;19.19
71915;BME280;60387;49.994;14.660;2023-07-20T13:19:29;97293.66;;;35.50;19.33
71915;BME280;60387;49.994;14.660;2023-07-20T13:22:02;97283.09;;;35.18;19.75
71915;BME280;60387;49.994;14.660;2023-07-20T13:24:35;97289.59;;;34.83;19.96
71915;BME280;60387;49.994;14.660;2023-07-20T13:27:09;97291.59;;;34.55;20.43
71915;BME280;60387;49.994;14.660;2023-07-20T13:29:42;97287.53;;;34.38;20.42
71915;BME280;60387;49.994;14.660;2023-07-20T13:32:15;97279.88;;;34.30;21.06
71915;BME280;60387;49.994;14.660;2023-07-20T13:34:49;97288.66;;;34.32;20.40
71915;BME280;60387;49.994;14.660;2023-07-20T13:37:22;97271.63;;;34.44;20.66